createdAt,value
2022-10-05T00:02:53.914Z,2.30
2022-10-05T00:05:55.697Z,1.73
2022-10-05T00:08:57.618Z,2.17
2022-10-05T00:11:59.659Z,2.85
2022-10-05T00:15:01.585Z,4.28
2022-10-05T00:18:11.191Z,1.40
2022-10-05T00:21:20.245Z,1.13
2022-10-05T00:24:22.062Z,2.17
2022-10-05T00:27:32.166Z,1.08
2022-10-05T00:30:34.239Z,0.63
2022-10-05T00:33:36.832Z,1.27
2022-10-05T00:36:39.694Z,3.08
2022-10-05T00:39:42.240Z,1.00
2022-10-05T00:42:56.651Z,1.55
2022-10-05T00:46:22.048Z,1.42
2022-10-05T00:49:38.894Z,4.78
2022-10-05T00:53:39.583Z,0.80
2022-10-05T00:56:53.164Z,1.83
2022-10-05T01:00:13.353Z,1.30
2022-10-05T01:03:16.151Z,1.92
2022-10-05T01:06:44.101Z,1.25
2022-10-05T01:09:56.013Z,1.45
2022-10-05T01:13:40.000Z,2.70
2022-10-05T01:16:51.420Z,1.23
2022-10-05T01:20:13.278Z,2.05
2022-10-05T01:23:33.320Z,2.83
2022-10-05T01:26:56.165Z,1.55
2022-10-05T01:30:13.544Z,1.35
2022-10-05T01:33:18.507Z,1.13
2022-10-05T01:36:28.633Z,1.17
2022-10-05T01:40:01.392Z,3.83
2022-10-05T01:43:30.314Z,2.08
2022-10-05T01:46:42.348Z,1.00
2022-10-05T01:49:56.384Z,1.10
2022-10-05T01:53:13.250Z,1.73
2022-10-05T01:56:47.423Z,2.15
2022-10-05T02:00:14.591Z,1.85
2022-10-05T02:03:20.993Z,1.10
2022-10-05T02:06:30.710Z,1.90
2022-10-05T02:09:39.711Z,1.13
2022-10-05T02:12:43.623Z,2.13
2022-10-05T02:15:53.189Z,1.13
2022-10-05T02:19:00.312Z,0.70
2022-10-05T02:25:20.408Z,1.67
2022-10-05T02:28:23.801Z,1.23
2022-10-05T02:31:31.547Z,2.85
2022-10-05T02:34:39.992Z,5.85
2022-10-05T02:38:09.576Z,1.50
2022-10-05T02:41:38.846Z,0.82
2022-10-05T02:45:03.757Z,1.50
2022-10-05T02:48:25.499Z,1.83
2022-10-05T02:51:35.863Z,4.85
2022-10-05T02:54:50.991Z,0.77
2022-10-05T02:58:12.122Z,1.25
2022-10-05T03:01:27.741Z,2.10
2022-10-05T03:04:37.397Z,0.73
2022-10-05T03:07:50.970Z,2.50
2022-10-05T03:11:04.803Z,1.27
2022-10-05T03:14:44.057Z,1.17
2022-10-05T03:18:20.455Z,0.75
2022-10-05T03:21:22.660Z,0.75
2022-10-05T03:24:43.817Z,2.10
2022-10-05T03:27:59.948Z,2.30
2022-10-05T03:31:23.973Z,2.15
2022-10-05T03:34:49.309Z,1.15
2022-10-05T03:38:15.663Z,0.63
2022-10-05T03:41:35.728Z,1.63
2022-10-05T03:45:09.590Z,1.17
2022-10-05T03:48:16.180Z,0.60
2022-10-05T03:51:29.965Z,1.30
2022-10-05T03:55:00.499Z,2.50
2022-10-05T03:58:20.327Z,0.70
2022-10-05T04:01:29.687Z,2.47
2022-10-05T04:04:38.741Z,1.25
2022-10-05T04:07:48.442Z,1.87
2022-10-05T04:10:54.988Z,2.17
2022-10-05T04:14:07.335Z,1.40
2022-10-05T04:17:14.648Z,1.75
2022-10-05T04:20:25.331Z,5.63
2022-10-05T04:23:48.569Z,5.88
2022-10-05T04:27:39.582Z,1.70
2022-10-05T04:30:45.607Z,1.38
2022-10-05T04:33:58.238Z,1.55
2022-10-05T04:37:05.587Z,1.40
2022-10-05T04:40:34.223Z,3.85
2022-10-05T04:43:50.693Z,3.95
2022-10-05T04:47:46.583Z,2.85
2022-10-05T04:51:50.286Z,14.48
2022-10-05T04:55:16.195Z,1.73
2022-10-05T04:58:25.566Z,1.70
2022-10-05T05:01:58.940Z,0.80
2022-10-05T05:05:20.505Z,1.75
2022-10-05T05:08:30.991Z,1.15
2022-10-05T05:12:22.667Z,0.85
2022-10-05T05:24:38.987Z,2.80
2022-10-05T05:27:50.072Z,1.05
2022-10-05T05:31:26.137Z,1.45
2022-10-05T05:35:05.874Z,2.20
2022-10-05T05:38:31.254Z,1.65
2022-10-05T05:41:54.333Z,0.55
2022-10-05T05:45:00.497Z,4.13
2022-10-05T05:48:09.465Z,0.57
2022-10-05T05:51:18.051Z,1.80
2022-10-05T05:54:41.340Z,0.82
2022-10-05T05:58:12.105Z,1.40
2022-10-05T06:01:42.038Z,3.80
2022-10-05T06:04:52.150Z,3.15
2022-10-05T06:07:56.255Z,3.38
2022-10-05T06:11:02.858Z,3.53
2022-10-05T06:14:11.556Z,1.17
2022-10-05T06:17:21.366Z,2.50
2022-10-05T06:20:31.140Z,3.10
2022-10-05T06:23:46.358Z,2.25
2022-10-05T06:27:18.307Z,6.60
2022-10-05T06:30:20.439Z,9.60
2022-10-05T06:33:41.690Z,5.32
2022-10-05T06:36:53.376Z,6.18
2022-10-05T06:40:44.341Z,4.53
2022-10-05T06:44:14.115Z,8.05
2022-10-05T06:47:47.571Z,4.70
2022-10-05T06:51:16.992Z,5.18
2022-10-05T06:55:01.285Z,3.35
2022-10-05T06:58:15.485Z,4.70
2022-10-05T07:01:25.296Z,4.25
2022-10-05T07:04:53.403Z,3.25
2022-10-05T07:07:59.426Z,3.70
2022-10-05T07:11:13.889Z,1.55
2022-10-05T07:14:27.781Z,2.83
2022-10-05T07:17:45.696Z,4.53
2022-10-05T07:21:14.688Z,8.27
2022-10-05T07:27:42.538Z,1.90
2022-10-05T07:30:53.885Z,3.53
2022-10-05T07:34:02.980Z,2.63
2022-10-05T07:37:28.563Z,3.33
2022-10-05T07:40:42.143Z,2.80
2022-10-05T07:44:23.291Z,2.92
2022-10-05T07:47:31.289Z,1.88
2022-10-05T07:50:43.825Z,3.30
2022-10-05T07:54:03.204Z,4.28
2022-10-05T07:57:21.818Z,2.15
2022-10-05T08:00:37.956Z,3.17
2022-10-05T08:03:48.214Z,4.18
2022-10-05T08:06:53.209Z,3.90
2022-10-05T08:10:14.765Z,5.05
2022-10-05T08:13:39.739Z,4.65
2022-10-05T08:16:42.398Z,2.45
2022-10-05T08:19:48.527Z,2.65
2022-10-05T08:23:06.996Z,2.70
2022-10-05T08:26:15.413Z,2.72
2022-10-05T08:29:30.543Z,2.78
2022-10-05T08:32:41.249Z,3.20
2022-10-05T08:35:45.432Z,2.88
2022-10-05T08:38:47.794Z,4.93
2022-10-05T08:42:27.333Z,4.75
2022-10-05T08:45:29.107Z,2.53
2022-10-05T08:48:52.687Z,4.18
2022-10-05T08:52:25.999Z,5.35
2022-10-05T08:55:56.104Z,5.35
2022-10-05T08:59:25.924Z,2.65
2022-10-05T09:02:33.571Z,6.28
2022-10-05T09:05:47.446Z,3.22
2022-10-05T09:09:07.320Z,4.53
2022-10-05T09:12:21.620Z,12.10
2022-10-05T09:15:27.718Z,4.15
2022-10-05T09:19:00.405Z,3.05
2022-10-05T09:22:15.389Z,11.48
2022-10-05T09:25:39.622Z,5.45
2022-10-05T09:28:56.269Z,4.32
2022-10-05T09:32:35.601Z,4.82
2022-10-05T09:35:57.457Z,2.63
2022-10-05T09:39:05.262Z,6.28
2022-10-05T09:42:25.547Z,6.00
2022-10-05T09:45:27.483Z,6.88
2022-10-05T09:48:54.305Z,5.47
2022-10-05T09:52:06.276Z,2.65
2022-10-05T09:55:42.192Z,2.67
2022-10-05T09:59:08.834Z,4.75
2022-10-05T10:02:27.656Z,2.35
2022-10-05T10:05:56.900Z,5.78
2022-10-05T10:09:10.308Z,1.38
2022-10-05T10:13:02.330Z,3.00
2022-10-05T10:16:23.758Z,2.08
2022-10-05T10:19:56.486Z,2.30
2022-10-05T10:23:49.387Z,1.98
2022-10-05T10:27:09.876Z,1.20
2022-10-05T10:30:54.741Z,2.70
2022-10-05T10:34:29.501Z,2.22
2022-10-05T10:37:34.531Z,2.90
2022-10-05T10:40:55.090Z,2.05
2022-10-05T10:43:59.820Z,1.52
2022-10-05T10:47:23.957Z,1.92
2022-10-05T10:50:33.300Z,2.13
2022-10-05T10:54:22.275Z,3.42
2022-10-05T10:57:46.008Z,2.42
2022-10-05T11:00:59.639Z,2.78
2022-10-05T11:04:26.532Z,5.28
2022-10-05T11:07:57.133Z,3.65
2022-10-05T11:11:29.579Z,3.13
2022-10-05T11:15:05.597Z,2.33
2022-10-05T11:18:20.489Z,2.92
2022-10-05T11:21:31.800Z,7.95
2022-10-05T11:24:52.033Z,3.35
2022-10-05T11:28:14.368Z,2.90
2022-10-05T11:31:28.056Z,1.77
2022-10-05T11:34:48.375Z,4.88
2022-10-05T11:38:04.119Z,2.55
2022-10-05T11:41:41.353Z,6.10
2022-10-05T11:45:11.860Z,3.20
2022-10-05T11:48:32.324Z,1.73
2022-10-05T11:52:09.802Z,4.40
2022-10-05T11:55:39.749Z,2.50
2022-10-05T11:58:47.463Z,2.88
2022-10-05T12:02:43.064Z,1.70
2022-10-05T12:06:06.034Z,1.77
2022-10-05T12:10:10.977Z,1.40
2022-10-05T12:13:56.151Z,1.38
2022-10-05T12:17:03.074Z,2.58
2022-10-05T12:23:42.746Z,1.63
2022-10-05T12:26:55.645Z,4.03
2022-10-05T12:30:07.005Z,2.45
2022-10-05T12:33:13.914Z,2.25
2022-10-05T12:39:30.229Z,1.92
2022-10-05T12:42:42.843Z,2.00
2022-10-05T12:46:19.845Z,1.75
2022-10-05T12:49:30.770Z,1.65
2022-10-05T12:52:38.760Z,2.75
2022-10-05T12:56:02.189Z,2.65
2022-10-05T12:59:18.826Z,6.20
2022-10-05T13:02:51.034Z,3.40
2022-10-05T13:06:04.315Z,2.15
2022-10-05T13:09:19.118Z,3.85
2022-10-05T13:12:20.974Z,3.10
2022-10-05T13:15:36.499Z,2.30
2022-10-05T13:18:54.589Z,2.58
2022-10-05T13:22:04.998Z,1.50
2022-10-05T13:25:32.830Z,2.78
2022-10-05T13:31:46.410Z,2.78
2022-10-05T13:35:00.399Z,2.65
2022-10-05T13:38:28.475Z,1.85
2022-10-05T13:41:30.314Z,2.90
2022-10-05T13:44:53.500Z,2.35
2022-10-05T13:48:26.965Z,2.83
2022-10-05T13:52:00.192Z,3.13
2022-10-05T13:55:11.691Z,4.18
2022-10-05T13:58:47.032Z,4.75
2022-10-05T14:02:03.074Z,2.92
2022-10-05T14:05:24.101Z,7.03
2022-10-05T14:08:32.297Z,6.50
2022-10-05T14:11:36.919Z,2.28
2022-10-05T14:14:59.459Z,2.80
2022-10-05T14:18:28.039Z,2.85
2022-10-05T14:21:32.003Z,2.30
2022-10-05T14:24:48.045Z,2.60
2022-10-05T14:28:01.054Z,2.40
2022-10-05T14:31:14.578Z,2.35
2022-10-05T14:34:27.582Z,4.85
2022-10-05T14:38:03.278Z,3.30
2022-10-05T14:41:08.685Z,2.45
2022-10-05T14:44:17.995Z,5.82
2022-10-05T14:47:24.289Z,8.30
2022-10-05T14:50:34.942Z,7.53
2022-10-05T14:53:44.532Z,4.40
2022-10-05T14:56:59.345Z,4.30
2022-10-05T15:00:11.409Z,4.55
2022-10-05T15:03:45.613Z,5.38
2022-10-05T15:07:04.444Z,2.88
2022-10-05T15:13:55.750Z,6.13
2022-10-05T15:17:05.876Z,4.50
2022-10-05T15:20:20.698Z,6.45
2022-10-05T15:23:31.721Z,9.15
2022-10-05T15:26:46.741Z,12.90
2022-10-05T15:30:00.728Z,10.15
2022-10-05T15:33:29.902Z,4.50
2022-10-05T15:37:04.605Z,2.92
2022-10-05T15:40:36.874Z,2.03
2022-10-05T15:43:47.085Z,2.42
2022-10-05T15:47:10.651Z,1.70
2022-10-05T15:50:21.977Z,1.65
2022-10-05T15:53:36.271Z,2.97
2022-10-05T15:56:43.046Z,2.22
2022-10-05T16:00:05.916Z,1.35
2022-10-05T16:03:21.720Z,1.90
2022-10-05T16:06:49.066Z,2.67
2022-10-05T16:10:02.903Z,1.60
2022-10-05T16:13:29.421Z,3.60
2022-10-05T16:16:52.996Z,2.42
2022-10-05T16:20:05.412Z,2.53
2022-10-05T16:23:22.086Z,3.40
2022-10-05T16:26:42.597Z,4.63
2022-10-05T16:30:02.944Z,1.40
2022-10-05T16:33:39.831Z,1.73
2022-10-05T16:37:02.726Z,3.75
2022-10-05T16:40:08.688Z,3.72
2022-10-05T16:43:29.033Z,3.05
2022-10-05T16:46:46.968Z,2.38
2022-10-05T16:49:57.837Z,1.88
2022-10-05T16:53:11.603Z,5.32
2022-10-05T16:56:19.706Z,3.63
2022-10-05T16:59:44.041Z,3.30
2022-10-05T17:02:58.177Z,3.17
2022-10-05T17:06:20.365Z,5.03
2022-10-05T17:10:03.713Z,2.30
2022-10-05T17:13:29.171Z,1.20
2022-10-05T17:17:26.660Z,4.45
2022-10-05T17:20:57.290Z,1.40
2022-10-05T17:24:22.608Z,2.90
2022-10-05T17:27:54.137Z,2.17
2022-10-05T17:30:58.977Z,2.72
2022-10-05T17:34:23.677Z,1.92
2022-10-05T17:37:43.965Z,2.13
2022-10-05T17:41:05.800Z,3.10
2022-10-05T17:44:13.922Z,2.58
2022-10-05T17:47:16.405Z,1.70
2022-10-05T17:50:55.507Z,10.77
2022-10-05T17:54:16.583Z,9.30
2022-10-05T17:57:25.697Z,10.30
2022-10-05T18:00:42.134Z,14.45
2022-10-05T18:03:51.828Z,14.80
2022-10-05T18:06:57.382Z,19.23
2022-10-05T18:10:04.647Z,32.30
2022-10-05T18:13:35.279Z,17.98
2022-10-05T18:16:57.256Z,20.02
2022-10-05T18:20:24.325Z,23.40
2022-10-05T18:23:30.097Z,17.57
2022-10-05T18:26:47.242Z,15.37
2022-10-05T18:30:09.431Z,11.93
2022-10-05T18:33:49.527Z,18.40
2022-10-05T18:37:27.085Z,21.85
2022-10-05T18:40:32.127Z,14.20
2022-10-05T18:43:51.469Z,16.05
2022-10-05T18:47:15.834Z,14.02
2022-10-05T18:50:38.853Z,8.02
2022-10-05T18:54:03.845Z,6.47
2022-10-05T18:57:30.017Z,20.88
2022-10-05T19:00:44.143Z,10.68
2022-10-05T19:03:55.299Z,6.38
2022-10-05T19:06:57.377Z,9.38
2022-10-05T19:10:07.858Z,10.07
2022-10-05T19:13:47.126Z,7.32
2022-10-05T19:17:08.134Z,6.22
2022-10-05T19:20:35.979Z,5.55
2022-10-05T19:27:27.137Z,7.70
2022-10-05T19:30:44.019Z,6.20
2022-10-05T19:34:01.934Z,4.80
2022-10-05T19:37:21.437Z,3.83
2022-10-05T19:40:39.275Z,4.28
2022-10-05T19:43:58.561Z,5.75
2022-10-05T19:47:02.966Z,5.78
2022-10-05T19:50:22.126Z,17.27
2022-10-05T19:53:31.372Z,34.30
2022-10-05T19:56:34.424Z,102.93
2022-10-05T19:59:37.627Z,70.78
2022-10-05T20:02:42.186Z,65.88
2022-10-05T20:05:45.077Z,20.27
2022-10-05T20:08:49.826Z,14.38
2022-10-05T20:11:53.288Z,16.38
2022-10-05T20:15:25.410Z,34.38
2022-10-05T20:19:01.533Z,6.28
2022-10-05T20:22:24.091Z,9.77
2022-10-05T20:25:26.159Z,5.60
2022-10-05T20:28:32.271Z,4.65
2022-10-05T20:31:35.247Z,4.63
2022-10-05T20:34:41.535Z,3.17
2022-10-05T20:37:43.579Z,5.50
2022-10-05T20:40:50.081Z,3.53
2022-10-05T20:43:52.200Z,3.58
2022-10-05T20:46:57.698Z,6.13
2022-10-05T20:49:59.918Z,3.30
2022-10-05T20:53:02.122Z,5.50
2022-10-05T20:56:04.758Z,5.88
2022-10-05T20:59:06.845Z,3.47
2022-10-05T21:02:10.281Z,3.35
2022-10-05T21:05:12.566Z,3.10
2022-10-05T21:08:14.399Z,3.45
2022-10-05T21:11:17.578Z,4.97
2022-10-05T21:14:19.279Z,2.70
2022-10-05T21:17:21.254Z,3.08
2022-10-05T21:20:23.259Z,2.42
2022-10-05T21:23:25.284Z,2.33
2022-10-05T21:26:29.209Z,3.78
2022-10-05T21:29:35.454Z,7.90
2022-10-05T21:32:41.777Z,7.57
2022-10-05T21:35:46.068Z,38.13
2022-10-05T21:38:48.856Z,14.60
2022-10-05T21:41:50.787Z,11.32
2022-10-05T21:44:52.762Z,3.17
2022-10-05T21:47:54.761Z,4.43
2022-10-05T21:50:57.772Z,13.55
2022-10-05T21:54:07.346Z,10.55
2022-10-05T21:57:11.366Z,5.53
2022-10-05T22:00:16.484Z,4.55
2022-10-05T22:03:18.384Z,6.00
2022-10-05T22:06:20.179Z,3.95
2022-10-05T22:09:24.474Z,7.68
2022-10-05T22:12:26.563Z,3.17
2022-10-05T22:15:29.676Z,5.20
2022-10-05T22:18:31.798Z,4.13
2022-10-05T22:21:38.219Z,2.78
2022-10-05T22:24:40.065Z,3.60
2022-10-05T22:27:43.072Z,15.07
2022-10-05T22:30:45.416Z,3.25
2022-10-05T22:33:47.151Z,5.80
2022-10-05T22:36:49.076Z,11.38
2022-10-05T22:39:50.920Z,5.38
2022-10-05T22:42:54.575Z,3.95
2022-10-05T22:45:56.643Z,15.57
2022-10-05T22:48:58.457Z,5.30
2022-10-05T22:52:00.191Z,4.63
2022-10-05T22:55:02.242Z,11.10
2022-10-05T22:58:04.046Z,3.65
2022-10-05T23:01:08.546Z,2.97
2022-10-05T23:04:16.886Z,3.65
2022-10-05T23:07:18.745Z,2.45
2022-10-05T23:10:20.469Z,4.63
2022-10-05T23:13:22.639Z,10.80
2022-10-05T23:16:26.904Z,6.22
2022-10-05T23:19:30.144Z,2.47
2022-10-05T23:22:36.754Z,2.67
2022-10-05T23:25:38.543Z,2.78
2022-10-05T23:28:43.237Z,3.40
2022-10-05T23:31:45.175Z,2.17
2022-10-05T23:34:48.978Z,2.83
2022-10-05T23:37:51.076Z,2.05
2022-10-05T23:40:52.932Z,10.65
2022-10-05T23:43:55.374Z,3.63
2022-10-05T23:46:57.320Z,2.35
2022-10-05T23:50:01.621Z,5.13
2022-10-05T23:53:03.931Z,2.83
2022-10-05T23:56:06.093Z,2.40
2022-10-05T23:59:07.779Z,8.65
